Time;durP1;ratioP1;P1;durP2;ratioP2;P2;SDS_P1;SDS_P2;PMS_P1;PMS_P2;Temp;Humidity;BMP_temperature;BMP_pressure;BME280_temperature;BME280_humidity;BME280_pressure;Samples;Min_cycle;Max_cycle;Signal;HPM_P1;HPM_P2
2021/06/23 00:00:52;;;;;;;0.30;0.30;;;;;;;;;;5070763;28;20056;-73
2021/06/23 00:03:18;;;;;;;0.28;0.28;;;;;;;;;;5070548;28;20056;-73
2021/06/23 00:05:44;;;;;;;0.68;0.40;;;;;;;;;;5070719;28;20048;-73
2021/06/23 00:08:10;;;;;;;0.68;0.40;;;;;;;;;;5070847;28;20139;-73
2021/06/23 00:10:37;;;;;;;0.38;0.38;;;;;;;;;;5071510;28;20173;-73
2021/06/23 00:13:08;;;;;;;0.40;0.40;;;;;;;;;;5070452;28;20101;-73
2021/06/23 00:15:34;;;;;;;0.32;0.32;;;;;;;;;;5071265;28;20060;-73
2021/06/23 00:18:00;;;;;;;0.60;0.20;;;;;;;;;;5070465;28;20044;-73
2021/06/23 00:20:27;;;;;;;0.20;0.20;;;;;;;;;;5071638;28;20048;-73
2021/06/23 00:22:53;;;;;;;0.20;0.20;;;;;;;;;;5070789;28;20079;-73
2021/06/23 00:25:19;;;;;;;0.30;0.30;;;;;;;;;;5070946;28;20522;-73
2021/06/23 00:27:45;;;;;;;0.43;0.30;;;;;;;;;;5071468;28;20044;-73
2021/06/23 00:30:11;;;;;;;0.40;0.30;;;;;;;;;;5070426;28;20048;-73
2021/06/23 00:32:40;;;;;;;0.30;0.30;;;;;;;;;;5070538;28;20094;-73
2021/06/23 00:35:06;;;;;;;1.23;0.45;;;;;;;;;;5069941;28;20040;-73
2021/06/23 00:37:32;;;;;;;0.20;0.20;;;;;;;;;;5070920;28;20067;-73
2021/06/23 00:39:58;;;;;;;0.20;0.20;;;;;;;;;;5070128;28;20041;-73
2021/06/23 00:42:25;;;;;;;0.35;0.30;;;;;;;;;;5070894;28;20105;-73
2021/06/23 00:44:51;;;;;;;0.20;0.20;;;;;;;;;;5070018;28;20452;-73
2021/06/23 00:47:17;;;;;;;1.65;0.30;;;;;;;;;;5070240;28;20052;-73
2021/06/23 00:49:43;;;;;;;0.32;0.20;;;;;;;;;;5070317;28;20040;-73
2021/06/23 00:52:10;;;;;;;0.28;0.20;;;;;;;;;;5070026;28;20453;-73
2021/06/23 00:54:36;;;;;;;0.22;0.22;;;;;;;;;;5069830;28;20546;-73
2021/06/23 00:57:06;;;;;;;0.20;0.20;;;;;;;;;;5069520;28;20048;-73
2021/06/23 00:59:32;;;;;;;0.20;0.20;;;;;;;;;;5050667;28;20407;-73
2021/06/23 01:01:59;;;;;;;0.20;0.17;;;;;;;;;;5069462;28;20088;-73
2021/06/23 01:04:25;;;;;;;0.30;0.25;;;;;;;;;;5069794;28;20052;-73
2021/06/23 01:06:52;;;;;;;0.32;0.25;;;;;;;;;;5069277;28;20082;-73
2021/06/23 01:09:19;;;;;;;0.65;0.25;;;;;;;;;;5068070;28;20145;-73
2021/06/23 01:12:03;;;;;;;0.40;0.20;;;;;;;;;;5070337;28;20052;-73
2021/06/23 01:14:33;;;;;;;0.25;0.25;;;;;;;;;;5068987;28;20044;-73
2021/06/23 01:17:00;;;;;;;0.20;0.20;;;;;;;;;;5069524;28;20176;-73
2021/06/23 01:19:26;;;;;;;0.20;0.20;;;;;;;;;;5069874;28;20052;-73
2021/06/23 01:21:52;;;;;;;0.60;0.30;;;;;;;;;;5069438;28;20045;-73
2021/06/23 01:24:18;;;;;;;0.30;0.30;;;;;;;;;;5069512;28;20048;-73
2021/06/23 01:26:45;;;;;;;0.17;0.17;;;;;;;;;;5069969;28;20052;-73
2021/06/23 01:29:11;;;;;;;1.27;0.40;;;;;;;;;;5068878;28;20076;-73
2021/06/23 01:31:37;;;;;;;1.45;0.40;;;;;;;;;;5069500;28;20533;-73
2021/06/23 01:34:03;;;;;;;2.20;0.20;;;;;;;;;;5068343;28;20106;-73
2021/06/23 01:36:30;;;;;;;0.75;0.63;;;;;;;;;;5069014;28;20514;-73
2021/06/23 01:38:56;;;;;;;0.30;0.20;;;;;;;;;;5068647;28;20049;-73
2021/06/23 01:41:23;;;;;;;0.30;0.30;;;;;;;;;;5069797;28;20045;-73
2021/06/23 01:43:49;;;;;;;0.55;0.52;;;;;;;;;;5068650;28;20044;-73
2021/06/23 01:46:15;;;;;;;0.25;0.15;;;;;;;;;;5069181;28;20408;-73
2021/06/23 01:48:41;;;;;;;0.38;0.38;;;;;;;;;;5069504;28;20044;-73
2021/06/23 01:51:07;;;;;;;0.10;0.10;;;;;;;;;;5068663;28;20052;-73
2021/06/23 01:53:35;;;;;;;0.28;0.28;;;;;;;;;;5069377;28;20087;-73
2021/06/23 01:56:01;;;;;;;2.13;0.30;;;;;;;;;;5048481;28;20423;-73
2021/06/23 01:58:27;;;;;;;0.35;0.25;;;;;;;;;;5049474;28;20057;-73
2021/06/23 02:01:05;;;;;;;0.20;0.20;;;;;;;;;;5048440;28;20073;-73
2021/06/23 02:03:31;;;;;;;0.30;0.20;;;;;;;;;;5047957;28;20045;-73
2021/06/23 02:06:05;;;;;;;0.30;0.30;;;;;;;;;;5048123;28;20045;-73
2021/06/23 02:08:50;;;;;;;0.35;0.35;;;;;;;;;;5047858;28;20041;-73
2021/06/23 02:11:41;;;;;;;0.32;0.28;;;;;;;;;;5047758;28;20131;-73
2021/06/23 02:14:26;;;;;;;0.20;0.20;;;;;;;;;;5047524;28;20475;-73
2021/06/23 02:16:54;;;;;;;0.28;0.20;;;;;;;;;;5047889;28;20517;-73
2021/06/23 02:19:20;;;;;;;0.93;0.20;;;;;;;;;;5048770;28;20094;-73
2021/06/23 02:21:46;;;;;;;0.10;0.10;;;;;;;;;;5049101;28;20504;-73
2021/06/23 02:24:12;;;;;;;0.13;0.13;;;;;;;;;;5048189;28;20072;-73
2021/06/23 02:26:38;;;;;;;0.30;0.30;;;;;;;;;;5048772;28;20080;-73
2021/06/23 02:29:05;;;;;;;0.20;0.15;;;;;;;;;;5048300;28;20068;-73
2021/06/23 02:31:33;;;;;;;0.10;0.10;;;;;;;;;;5048916;28;20045;-74
2021/06/23 02:33:59;;;;;;;0.10;0.10;;;;;;;;;;5048017;28;20049;-74
2021/06/23 02:36:26;;;;;;;0.28;0.15;;;;;;;;;;5048709;28;20564;-73
2021/06/23 02:38:52;;;;;;;0.20;0.20;;;;;;;;;;5048286;28;20044;-74
2021/06/23 02:41:18;;;;;;;0.20;0.17;;;;;;;;;;5049116;28;20091;-74
2021/06/23 02:43:45;;;;;;;0.20;0.20;;;;;;;;;;5048546;28;20037;-74
2021/06/23 02:46:11;;;;;;;0.08;0.08;;;;;;;;;;5047924;28;20055;-73
2021/06/23 02:48:37;;;;;;;0.40;0.20;;;;;;;;;;5049246;28;20073;-73
2021/06/23 02:51:07;;;;;;;0.25;0.20;;;;;;;;;;5048520;28;20049;-73
2021/06/23 02:53:33;;;;;;;0.35;0.20;;;;;;;;;;5047016;28;20412;-73
2021/06/23 02:55:59;;;;;;;0.20;0.20;;;;;;;;;;5068404;28;20040;-73
2021/06/23 02:58:26;;;;;;;0.17;0.17;;;;;;;;;;5068982;28;20075;-73
2021/06/23 03:00:53;;;;;;;0.20;0.20;;;;;;;;;;5068201;28;20041;-73
2021/06/23 03:03:20;;;;;;;0.30;0.30;;;;;;;;;;5068274;28;20093;-73
2021/06/23 03:05:46;;;;;;;0.43;0.30;;;;;;;;;;5068592;28;20503;-73
2021/06/23 03:08:12;;;;;;;0.20;0.20;;;;;;;;;;5068481;28;20059;-73
2021/06/23 03:10:38;;;;;;;0.30;0.30;;;;;;;;;;5068615;28;20444;-73
2021/06/23 03:13:04;;;;;;;0.38;0.22;;;;;;;;;;5067666;28;20053;-73
2021/06/23 03:15:30;;;;;;;2.13;0.40;;;;;;;;;;5068496;28;20060;-73
2021/06/23 03:17:57;;;;;;;0.17;0.17;;;;;;;;;;5068044;28;20135;-73
2021/06/23 03:20:23;;;;;;;0.17;0.17;;;;;;;;;;5068530;28;20242;-73
2021/06/23 03:22:49;;;;;;;1.20;0.30;;;;;;;;;;5068030;28;20040;-73
2021/06/23 03:25:15;;;;;;;0.10;0.10;;;;;;;;;;5067820;28;20111;-73
2021/06/23 03:27:41;;;;;;;2.38;0.20;;;;;;;;;;5068732;28;20071;-73
2021/06/23 03:30:08;;;;;;;0.20;0.20;;;;;;;;;;5067950;28;20079;-73
2021/06/23 03:32:34;;;;;;;0.40;0.40;;;;;;;;;;5069187;28;20079;-73
2021/06/23 03:35:00;;;;;;;0.15;0.15;;;;;;;;;;5070711;28;20045;-73
2021/06/23 03:37:26;;;;;;;0.40;0.35;;;;;;;;;;5071950;28;20062;-73
2021/06/23 03:39:52;;;;;;;0.32;0.30;;;;;;;;;;5071217;28;20055;-73
2021/06/23 03:42:18;;;;;;;0.20;0.20;;;;;;;;;;5053903;28;20489;-73
2021/06/23 03:44:44;;;;;;;0.20;0.20;;;;;;;;;;5071133;28;20063;-73
2021/06/23 03:47:11;;;;;;;0.77;0.65;;;;;;;;;;5071409;28;20088;-73
2021/06/23 03:49:38;;;;;;;0.35;0.35;;;;;;;;;;5072129;28;20145;-73
2021/06/23 03:52:04;;;;;;;0.52;0.20;;;;;;;;;;5071152;28;20105;-73
2021/06/23 03:54:30;;;;;;;0.65;0.28;;;;;;;;;;5071350;28;20045;-73
2021/06/23 03:56:56;;;;;;;0.28;0.28;;;;;;;;;;5071105;28;20040;-73
2021/06/23 03:59:22;;;;;;;0.25;0.20;;;;;;;;;;5071571;28;20114;-74
2021/06/23 04:01:48;;;;;;;0.10;0.10;;;;;;;;;;5070581;28;20075;-73
2021/06/23 04:04:14;;;;;;;0.30;0.30;;;;;;;;;;5070822;28;20136;-73
2021/06/23 04:06:40;;;;;;;0.32;0.15;;;;;;;;;;5071289;28;20048;-73
2021/06/23 04:09:06;;;;;;;0.52;0.40;;;;;;;;;;5070719;28;20040;-73
2021/06/23 04:11:32;;;;;;;0.40;0.20;;;;;;;;;;5071497;28;20048;-73
2021/06/23 04:13:58;;;;;;;0.38;0.38;;;;;;;;;;5070404;28;20117;-73
2021/06/23 04:16:25;;;;;;;0.30;0.28;;;;;;;;;;5071419;28;20055;-73
2021/06/23 04:18:51;;;;;;;0.30;0.30;;;;;;;;;;5070675;28;20048;-73
2021/06/23 04:21:17;;;;;;;0.20;0.20;;;;;;;;;;5071067;28;20424;-73
2021/06/23 04:23:43;;;;;;;0.20;0.20;;;;;;;;;;5071006;28;20055;-73
2021/06/23 04:26:09;;;;;;;0.65;0.22;;;;;;;;;;5070227;28;20049;-73
2021/06/23 04:28:35;;;;;;;0.20;0.20;;;;;;;;;;5071053;28;20094;-73
2021/06/23 04:31:01;;;;;;;0.20;0.20;;;;;;;;;;5070114;28;20407;-73
2021/06/23 04:33:27;;;;;;;0.50;0.30;;;;;;;;;;5070860;28;20123;-73
2021/06/23 04:35:55;;;;;;;0.20;0.20;;;;;;;;;;5070037;28;20132;-73
2021/06/23 04:38:21;;;;;;;0.98;0.30;;;;;;;;;;5071006;28;20075;-73
2021/06/23 04:40:47;;;;;;;0.47;0.47;;;;;;;;;;5070306;28;20465;-73
2021/06/23 04:43:13;;;;;;;1.13;0.35;;;;;;;;;;5070316;28;20051;-73
2021/06/23 04:45:39;;;;;;;0.45;0.45;;;;;;;;;;5069854;28;20064;-73
2021/06/23 04:48:06;;;;;;;0.32;0.32;;;;;;;;;;5069787;28;20136;-73
2021/06/23 04:50:32;;;;;;;0.47;0.47;;;;;;;;;;5070605;28;20135;-73
2021/06/23 04:52:58;;;;;;;0.20;0.20;;;;;;;;;;5069766;28;20041;-73
2021/06/23 04:55:24;;;;;;;0.30;0.30;;;;;;;;;;5069951;28;20396;-73
2021/06/23 04:57:50;;;;;;;0.20;0.20;;;;;;;;;;5070177;28;20048;-73
2021/06/23 05:00:17;;;;;;;0.20;0.20;;;;;;;;;;5070220;28;20522;-73
2021/06/23 05:02:43;;;;;;;1.20;0.43;;;;;;;;;;5069661;28;20052;-73
2021/06/23 05:05:09;;;;;;;0.10;0.10;;;;;;;;;;5068969;28;20531;-73
2021/06/23 05:07:35;;;;;;;0.20;0.20;;;;;;;;;;5070347;28;20062;-73
2021/06/23 05:10:01;;;;;;;0.28;0.20;;;;;;;;;;5069570;28;20061;-73
2021/06/23 05:12:30;;;;;;;0.20;0.20;;;;;;;;;;5070156;28;20048;-73
2021/06/23 05:14:56;;;;;;;0.43;0.30;;;;;;;;;;5069051;28;20048;-73
2021/06/23 05:17:22;;;;;;;1.10;0.30;;;;;;;;;;5070185;28;20114;-73
2021/06/23 05:19:48;;;;;;;0.20;0.20;;;;;;;;;;5070016;28;20048;-73
2021/06/23 05:22:14;;;;;;;0.20;0.20;;;;;;;;;;5070363;28;20106;-73
2021/06/23 05:24:41;;;;;;;0.17;0.17;;;;;;;;;;5069320;28;20048;-73
2021/06/23 05:27:08;;;;;;;0.63;0.30;;;;;;;;;;5069530;28;20040;-73
2021/06/23 05:29:34;;;;;;;0.10;0.10;;;;;;;;;;5069782;28;20483;-73
2021/06/23 05:32:00;;;;;;;0.20;0.20;;;;;;;;;;5068920;28;20044;-73
2021/06/23 05:34:27;;;;;;;0.20;0.20;;;;;;;;;;5069253;28;20593;-73
2021/06/23 05:36:53;;;;;;;0.20;0.20;;;;;;;;;;5069070;28;20083;-73
2021/06/23 05:39:19;;;;;;;0.20;0.20;;;;;;;;;;5069476;28;20048;-73
2021/06/23 05:41:45;;;;;;;0.20;0.20;;;;;;;;;;5069893;28;20451;-73
2021/06/23 05:44:11;;;;;;;0.32;0.30;;;;;;;;;;5068498;28;20048;-73
2021/06/23 05:46:37;;;;;;;0.20;0.20;;;;;;;;;;5069224;28;20049;-73
2021/06/23 05:49:03;;;;;;;1.17;0.20;;;;;;;;;;5068726;28;20519;-73
2021/06/23 05:51:29;;;;;;;0.25;0.20;;;;;;;;;;5069500;28;20071;-73
2021/06/23 05:53:56;;;;;;;0.10;0.10;;;;;;;;;;5067476;28;20442;-73
2021/06/23 05:56:22;;;;;;;0.50;0.50;;;;;;;;;;5084762;28;20047;-73
2021/06/23 05:58:48;;;;;;;0.80;0.30;;;;;;;;;;5082215;28;20529;-73
2021/06/23 06:01:14;;;;;;;0.88;0.40;;;;;;;;;;5060262;28;20049;-72
2021/06/23 06:03:40;;;;;;;0.52;0.40;;;;;;;;;;5066764;28;20112;-73
2021/06/23 06:06:06;;;;;;;1.80;0.50;;;;;;;;;;5065957;28;20055;-73
2021/06/23 06:08:32;;;;;;;1.75;0.50;;;;;;;;;;5047833;28;20488;-73
2021/06/23 06:10:58;;;;;;;0.52;0.52;;;;;;;;;;5063961;28;20561;-75
2021/06/23 06:13:24;;;;;;;0.85;0.50;;;;;;;;;;5065149;28;20139;-72
2021/06/23 06:15:51;;;;;;;4.43;0.50;;;;;;;;;;5065210;28;20055;-73
2021/06/23 06:18:17;;;;;;;2.00;0.95;;;;;;;;;;5067107;28;20037;-73
2021/06/23 06:20:43;;;;;;;0.50;0.50;;;;;;;;;;5065111;28;20053;-72
2021/06/23 06:23:09;;;;;;;0.70;0.47;;;;;;;;;;5065065;28;20044;-73
2021/06/23 06:25:35;;;;;;;0.75;0.50;;;;;;;;;;5058628;28;20444;-72
2021/06/23 06:28:02;;;;;;;0.60;0.60;;;;;;;;;;5054074;28;20127;-72
2021/06/23 06:30:28;;;;;;;1.65;0.60;;;;;;;;;;5058467;28;20234;-71
2021/06/23 06:32:55;;;;;;;0.40;0.40;;;;;;;;;;5061444;28;20056;-71
2021/06/23 06:35:21;;;;;;;2.70;0.60;;;;;;;;;;5064546;28;20530;-72
2021/06/23 06:37:48;;;;;;;0.52;0.43;;;;;;;;;;5064596;28;20048;-73
2021/06/23 06:40:14;;;;;;;6.47;1.63;;;;;;;;;;5065785;28;20088;-74
2021/06/23 06:42:40;;;;;;;2.25;0.63;;;;;;;;;;5056673;28;20119;-74
2021/06/23 06:45:07;;;;;;;4.70;3.58;;;;;;;;;;5061908;28;20091;-74
2021/06/23 06:47:33;;;;;;;3.53;2.00;;;;;;;;;;5064068;28;20059;-73
2021/06/23 06:49:59;;;;;;;1.13;0.95;;;;;;;;;;5056868;28;20052;-73
2021/06/23 06:52:26;;;;;;;1.13;1.00;;;;;;;;;;5061469;28;20140;-74
2021/06/23 06:54:52;;;;;;;1.15;0.80;;;;;;;;;;5059936;28;20533;-74
2021/06/23 06:57:18;;;;;;;2.70;1.13;;;;;;;;;;5052909;28;20122;-73
2021/06/23 06:59:44;;;;;;;1.85;0.60;;;;;;;;;;5059394;28;20114;-72
2021/06/23 07:02:10;;;;;;;0.85;0.73;;;;;;;;;;5052442;28;20229;-73
2021/06/23 07:04:37;;;;;;;1.67;0.90;;;;;;;;;;5058323;28;20049;-73
2021/06/23 07:07:04;;;;;;;1.70;0.82;;;;;;;;;;5056604;28;20534;-73
2021/06/23 07:09:30;;;;;;;2.50;0.70;;;;;;;;;;5061941;28;20057;-71
2021/06/23 07:11:56;;;;;;;1.48;0.82;;;;;;;;;;5060028;28;20091;-72
2021/06/23 07:14:22;;;;;;;1.58;0.50;;;;;;;;;;5062581;28;20046;-73
2021/06/23 07:16:48;;;;;;;0.68;0.68;;;;;;;;;;5062703;28;20075;-72
2021/06/23 07:19:15;;;;;;;0.90;0.60;;;;;;;;;;5061824;28;20493;-72
2021/06/23 07:21:42;;;;;;;0.90;0.50;;;;;;;;;;5060910;28;20142;-72
2021/06/23 07:24:09;;;;;;;1.15;0.50;;;;;;;;;;5060564;28;20088;-72
2021/06/23 07:26:35;;;;;;;1.67;0.82;;;;;;;;;;5060144;28;20040;-72
2021/06/23 07:29:04;;;;;;;2.13;0.50;;;;;;;;;;5061724;28;20127;-72
2021/06/23 07:31:41;;;;;;;0.70;0.60;;;;;;;;;;5060620;28;20040;-72
2021/06/23 07:39:01;;;;;;;3.35;0.52;;;;;;;;;;5062503;28;20511;-72
2021/06/23 07:41:27;;;;;;;0.70;0.38;;;;;;;;;;5061683;28;20037;-72
2021/06/23 07:43:53;;;;;;;0.80;0.65;;;;;;;;;;5061927;28;20048;-72
2021/06/23 07:46:19;;;;;;;2.58;1.00;;;;;;;;;;5063708;28;20061;-73
2021/06/23 07:48:49;;;;;;;0.85;0.70;;;;;;;;;;5058836;28;20057;-75
2021/06/23 07:51:16;;;;;;;1.88;0.93;;;;;;;;;;5062023;28;20052;-76
2021/06/23 08:09:35;;;;;;;1.65;1.38;;;;;;;;;;5064502;28;20106;-74
2021/06/23 08:12:51;;;;;;;0.65;0.65;;;;;;;;;;5061070;28;20044;-74
2021/06/23 08:14:52;;;;;;;0.80;0.80;;;;;;;;;;5054398;28;20057;-72
2021/06/23 08:17:19;;;;;;;1.02;1.02;;;;;;;;;;5060942;28;20056;-74
2021/06/23 08:19:45;;;;;;;0.95;0.70;;;;;;;;;;5060619;28;20044;-72
2021/06/23 08:22:11;;;;;;;0.77;0.68;;;;;;;;;;5061526;28;20049;-74
2021/06/23 08:24:40;;;;;;;1.90;0.70;;;;;;;;;;5064060;28;20044;-73
2021/06/23 08:27:07;;;;;;;2.13;0.50;;;;;;;;;;5062133;28;20056;-73
2021/06/23 08:29:34;;;;;;;0.82;0.82;;;;;;;;;;5062674;28;20079;-73
2021/06/23 08:32:01;;;;;;;2.58;0.52;;;;;;;;;;5059147;28;20570;-73
2021/06/23 08:34:28;;;;;;;1.13;0.50;;;;;;;;;;5063881;28;20148;-72
2021/06/23 08:36:54;;;;;;;0.90;0.30;;;;;;;;;;5062074;28;20618;-72
2021/06/23 08:39:20;;;;;;;0.60;0.60;;;;;;;;;;5063595;28;20052;-72
2021/06/23 08:41:47;;;;;;;1.33;0.80;;;;;;;;;;5060454;28;20064;-74
2021/06/23 08:44:13;;;;;;;3.40;0.47;;;;;;;;;;5061504;28;20243;-75
2021/06/23 08:46:40;;;;;;;0.75;0.30;;;;;;;;;;5068182;28;20044;-73
2021/06/23 08:49:06;;;;;;;1.63;0.70;;;;;;;;;;5059115;28;20456;-72
2021/06/23 08:51:33;;;;;;;0.43;0.43;;;;;;;;;;5063105;28;20059;-75
2021/06/23 08:53:59;;;;;;;1.35;0.75;;;;;;;;;;5062430;28;20053;-72
2021/06/23 08:56:25;;;;;;;1.90;0.70;;;;;;;;;;5063721;28;20052;-73
2021/06/23 08:58:51;;;;;;;1.55;0.60;;;;;;;;;;5062867;28;20110;-71
2021/06/23 09:01:18;;;;;;;1.10;0.50;;;;;;;;;;5059352;28;20044;-73
2021/06/23 09:04:00;;;;;;;0.98;0.75;;;;;;;;;;5062567;28;20506;-74
2021/06/23 09:06:44;;;;;;;0.45;0.30;;;;;;;;;;5060656;28;20056;-74
2021/06/23 09:09:18;;;;;;;2.22;0.77;;;;;;;;;;5059273;28;20092;-72
2021/06/23 09:11:44;;;;;;;2.53;0.47;;;;;;;;;;5057253;28;20067;-74
2021/06/23 09:14:13;;;;;;;1.17;0.82;;;;;;;;;;5060378;28;20992;-73
2021/06/23 09:16:58;;;;;;;1.85;0.70;;;;;;;;;;5058379;28;20140;-73
2021/06/23 09:19:28;;;;;;;0.40;0.40;;;;;;;;;;5060198;28;20056;-73
2021/06/23 09:21:54;;;;;;;0.50;0.50;;;;;;;;;;5060796;28;20090;-72
2021/06/23 09:24:21;;;;;;;1.85;0.47;;;;;;;;;;5061287;28;20105;-73
2021/06/23 09:26:47;;;;;;;2.05;0.50;;;;;;;;;;5061545;28;20135;-72
2021/06/23 09:29:14;;;;;;;2.05;0.50;;;;;;;;;;5061387;28;20537;-74
2021/06/23 09:31:51;;;;;;;0.80;0.30;;;;;;;;;;5059702;28;20041;-72
2021/06/23 09:34:21;;;;;;;1.25;0.60;;;;;;;;;;5061514;28;20056;-72
2021/06/23 09:36:47;;;;;;;0.45;0.45;;;;;;;;;;5061054;28;20044;-72
2021/06/23 09:39:18;;;;;;;0.52;0.45;;;;;;;;;;5060208;28;20131;-72
2021/06/23 09:41:45;;;;;;;1.27;0.70;;;;;;;;;;5061159;28;20147;-72
2021/06/23 09:44:12;;;;;;;2.30;0.45;;;;;;;;;;5059596;28;20058;-72
2021/06/23 09:46:42;;;;;;;0.43;0.43;;;;;;;;;;5062399;28;20545;-72
2021/06/23 09:49:23;;;;;;;1.23;0.55;;;;;;;;;;5055734;28;20163;-71
2021/06/23 09:51:49;;;;;;;4.40;0.60;;;;;;;;;;5059104;28;20047;-72
2021/06/23 09:54:18;;;;;;;0.75;0.50;;;;;;;;;;5059026;28;20157;-72
2021/06/23 09:56:47;;;;;;;0.20;0.20;;;;;;;;;;5062103;28;20197;-73
2021/06/23 09:59:29;;;;;;;3.17;0.73;;;;;;;;;;5052182;28;20079;-72
2021/06/23 10:01:55;;;;;;;0.65;0.40;;;;;;;;;;5059921;28;20051;-72
2021/06/23 10:04:21;;;;;;;0.63;0.60;;;;;;;;;;5063346;28;20541;-72
2021/06/23 10:06:47;;;;;;;1.75;0.77;;;;;;;;;;5064230;28;20132;-72
2021/06/23 10:09:13;;;;;;;1.92;1.25;;;;;;;;;;5065115;28;20033;-71
2021/06/23 10:11:40;;;;;;;1.42;0.52;;;;;;;;;;5066599;28;20060;-71
2021/06/23 10:14:07;;;;;;;2.25;0.70;;;;;;;;;;5065240;28;20549;-72
2021/06/23 10:16:35;;;;;;;4.00;1.05;;;;;;;;;;5066156;28;20044;-72
2021/06/23 10:19:02;;;;;;;2.83;0.85;;;;;;;;;;5064361;28;20140;-71
2021/06/23 10:24:32;;;;;;;3.87;1.07;;;;;;;;;;5057023;28;20059;-72
2021/06/23 10:26:59;;;;;;;2.00;0.77;;;;;;;;;;5065275;28;20102;-71
2021/06/23 10:29:28;;;;;;;4.60;1.13;;;;;;;;;;5065116;28;20396;-73
2021/06/23 10:31:54;;;;;;;1.10;0.55;;;;;;;;;;5066317;28;20048;-73
2021/06/23 10:34:21;;;;;;;1.58;0.70;;;;;;;;;;5064879;28;20056;-73
2021/06/23 10:36:48;;;;;;;1.23;0.93;;;;;;;;;;5066948;28;20138;-73
2021/06/23 10:39:15;;;;;;;1.42;0.57;;;;;;;;;;5066038;28;20547;-72
2021/06/23 10:41:42;;;;;;;1.10;0.65;;;;;;;;;;5067078;28;20048;-73
2021/06/23 10:44:16;;;;;;;2.97;0.90;;;;;;;;;;5070879;28;20059;-72
2021/06/23 10:46:43;;;;;;;1.10;0.88;;;;;;;;;;5071398;28;20064;-72
2021/06/23 10:49:10;;;;;;;0.50;0.50;;;;;;;;;;5066927;28;20631;-72
2021/06/23 10:51:40;;;;;;;0.77;0.60;;;;;;;;;;5070884;28;20046;-72
2021/06/23 10:54:32;;;;;;;0.88;0.57;;;;;;;;;;5071009;28;20102;-71
2021/06/23 10:56:59;;;;;;;2.95;0.70;;;;;;;;;;5064901;28;20060;-72
2021/06/23 11:02:16;;;;;;;2.00;0.57;;;;;;;;;;5066882;28;20454;-72
2021/06/23 11:04:51;;;;;;;2.25;0.60;;;;;;;;;;5071099;28;20075;-72
2021/06/23 11:07:35;;;;;;;2.03;0.63;;;;;;;;;;5070344;28;20045;-72
2021/06/23 11:10:14;;;;;;;0.40;0.40;;;;;;;;;;5071352;28;20072;-71
2021/06/23 11:12:46;;;;;;;1.52;1.15;;;;;;;;;;5070005;28;20037;-71
2021/06/23 11:15:13;;;;;;;0.60;0.60;;;;;;;;;;5070244;28;20415;-71
2021/06/23 11:17:39;;;;;;;1.10;0.80;;;;;;;;;;5069338;28;20483;-72
2021/06/23 11:20:25;;;;;;;1.27;0.85;;;;;;;;;;5058976;28;20052;-72
2021/06/23 11:22:52;;;;;;;3.30;1.00;;;;;;;;;;5063156;28;20040;-72
2021/06/23 11:25:31;;;;;;;0.65;0.60;;;;;;;;;;5064070;28;20181;-72
2021/06/23 11:28:10;;;;;;;3.90;1.13;;;;;;;;;;5063238;28;20057;-76
2021/06/23 11:30:36;;;;;;;1.88;0.85;;;;;;;;;;5064950;28;20479;-74
2021/06/23 11:33:37;;;;;;;1.95;0.70;;;;;;;;;;5064697;28;20048;-74
2021/06/23 11:36:03;;;;;;;4.50;1.60;;;;;;;;;;4993029;28;20085;-73
2021/06/23 11:38:30;;;;;;;2.03;0.93;;;;;;;;;;5036455;28;20067;-73
2021/06/23 11:40:57;;;;;;;5.38;1.30;;;;;;;;;;5059245;28;20076;-73
2021/06/23 11:43:24;;;;;;;0.90;0.52;;;;;;;;;;5055777;28;20049;-73
2021/06/23 11:45:50;;;;;;;1.75;0.95;;;;;;;;;;5060245;28;20072;-73
2021/06/23 11:48:17;;;;;;;0.73;0.50;;;;;;;;;;5058500;28;20053;-73
2021/06/23 11:50:44;;;;;;;1.70;0.70;;;;;;;;;;5062876;28;20055;-73
2021/06/23 11:53:11;;;;;;;3.83;0.82;;;;;;;;;;5063126;28;20673;-73
2021/06/23 11:55:38;;;;;;;2.08;0.90;;;;;;;;;;5060866;28;20052;-73
2021/06/23 11:58:04;;;;;;;1.30;0.82;;;;;;;;;;5063631;28;20581;-74
2021/06/23 12:00:31;;;;;;;1.55;1.17;;;;;;;;;;5060816;28;20056;-74
2021/06/23 12:02:59;;;;;;;0.93;0.63;;;;;;;;;;5063268;28;20049;-74
2021/06/23 12:05:25;;;;;;;3.05;0.93;;;;;;;;;;5061444;28;20044;-74
2021/06/23 12:07:52;;;;;;;2.15;0.50;;;;;;;;;;5064962;28;20426;-74
2021/06/23 12:10:19;;;;;;;1.13;0.82;;;;;;;;;;5062319;28;20060;-73
2021/06/23 12:12:47;;;;;;;1.63;0.88;;;;;;;;;;5063063;28;20510;-73
2021/06/23 12:15:14;;;;;;;0.73;0.70;;;;;;;;;;5062138;28;20650;-73
2021/06/23 12:17:40;;;;;;;1.05;0.65;;;;;;;;;;5044978;28;20805;-73
2021/06/23 12:20:08;;;;;;;2.03;0.90;;;;;;;;;;5063098;28;20048;-72
2021/06/23 12:22:34;;;;;;;5.57;1.17;;;;;;;;;;5063234;28;20044;-74
2021/06/23 12:25:01;;;;;;;3.60;1.55;;;;;;;;;;5063748;28;20512;-73
2021/06/23 12:27:27;;;;;;;3.05;1.10;;;;;;;;;;5060868;28;20052;-74
2021/06/23 12:29:54;;;;;;;0.50;0.40;;;;;;;;;;5062959;28;20072;-73
2021/06/23 12:32:20;;;;;;;1.65;1.00;;;;;;;;;;5062246;28;20047;-75
2021/06/23 12:34:46;;;;;;;2.20;0.80;;;;;;;;;;5063489;28;20090;-75
2021/06/23 12:37:13;;;;;;;4.18;0.82;;;;;;;;;;5061418;28;20064;-75
2021/06/23 12:39:39;;;;;;;1.02;0.95;;;;;;;;;;5062550;28;20061;-76
2021/06/23 12:42:05;;;;;;;1.60;0.35;;;;;;;;;;5062222;28;20052;-74
2021/06/23 12:44:31;;;;;;;0.38;0.35;;;;;;;;;;5059748;28;20062;-75
2021/06/23 12:46:57;;;;;;;0.40;0.40;;;;;;;;;;5061801;28;20459;-75
2021/06/23 12:49:24;;;;;;;1.05;0.40;;;;;;;;;;5062449;28;20098;-75
2021/06/23 12:51:50;;;;;;;0.90;0.82;;;;;;;;;;5061711;28;20039;-74
2021/06/23 12:54:16;;;;;;;0.50;0.30;;;;;;;;;;5061941;28;20113;-74
2021/06/23 12:56:43;;;;;;;4.43;0.73;;;;;;;;;;5062042;28;20052;-75
2021/06/23 12:59:09;;;;;;;1.50;0.75;;;;;;;;;;5062400;28;20514;-74
2021/06/23 13:01:35;;;;;;;1.27;0.60;;;;;;;;;;5062222;28;20044;-79
2021/06/23 13:04:02;;;;;;;0.93;0.30;;;;;;;;;;5062065;28;20498;-75
2021/06/23 13:06:28;;;;;;;0.20;0.20;;;;;;;;;;5060843;28;20059;-72
2021/06/23 13:08:54;;;;;;;1.40;0.70;;;;;;;;;;5064247;28;20047;-73
2021/06/23 13:11:20;;;;;;;1.13;0.73;;;;;;;;;;5043792;28;20506;-73
2021/06/23 13:13:46;;;;;;;1.42;0.68;;;;;;;;;;5061493;28;20507;-73
2021/06/23 13:16:17;;;;;;;2.25;0.82;;;;;;;;;;5061389;28;20131;-72
2021/06/23 13:18:44;;;;;;;1.17;0.45;;;;;;;;;;5062847;28;20052;-73
2021/06/23 13:21:10;;;;;;;5.53;0.63;;;;;;;;;;5061448;28;20079;-73
2021/06/23 13:23:38;;;;;;;0.98;0.32;;;;;;;;;;5060138;28;20084;-73
2021/06/23 13:26:04;;;;;;;2.30;0.75;;;;;;;;;;5060517;28;20040;-73
2021/06/23 13:28:30;;;;;;;1.45;0.60;;;;;;;;;;5062235;28;20485;-73
2021/06/23 13:30:56;;;;;;;0.88;0.50;;;;;;;;;;5061705;28;20044;-74
2021/06/23 13:33:22;;;;;;;1.08;0.85;;;;;;;;;;5061703;28;20055;-73
2021/06/23 13:35:48;;;;;;;0.60;0.50;;;;;;;;;;5060538;28;20138;-73
2021/06/23 13:38:14;;;;;;;1.45;0.70;;;;;;;;;;5062012;28;20537;-73
2021/06/23 13:40:41;;;;;;;1.20;0.52;;;;;;;;;;5062243;28;20172;-73
2021/06/23 13:43:07;;;;;;;0.80;0.70;;;;;;;;;;5061509;28;20120;-74
2021/06/23 13:45:34;;;;;;;0.63;0.60;;;;;;;;;;5060334;28;20463;-73
2021/06/23 13:48:02;;;;;;;1.45;0.85;;;;;;;;;;5060992;28;20060;-73
2021/06/23 13:50:28;;;;;;;1.13;0.60;;;;;;;;;;5058594;28;20076;-73
2021/06/23 13:52:55;;;;;;;0.50;0.50;;;;;;;;;;5061354;28;20093;-73
2021/06/23 13:55:24;;;;;;;1.98;0.77;;;;;;;;;;5058692;28;21459;-73
2021/06/23 13:57:51;;;;;;;0.68;0.52;;;;;;;;;;5061591;28;20136;-73
2021/06/23 14:00:17;;;;;;;1.00;0.45;;;;;;;;;;5061413;28;20048;-72
2021/06/23 14:02:43;;;;;;;0.57;0.52;;;;;;;;;;5061658;28;20053;-73
2021/06/23 14:05:09;;;;;;;2.13;0.57;;;;;;;;;;5059356;28;20127;-73
2021/06/23 14:07:35;;;;;;;3.10;1.02;;;;;;;;;;5059612;28;20105;-72
2021/06/23 14:10:03;;;;;;;1.40;0.90;;;;;;;;;;5061168;28;20044;-71
2021/06/23 14:12:29;;;;;;;1.13;0.77;;;;;;;;;;5058803;28;20082;-73
2021/06/23 14:14:55;;;;;;;7.03;1.13;;;;;;;;;;5046572;28;20076;-73
2021/06/23 14:17:21;;;;;;;1.67;0.63;;;;;;;;;;5053537;28;20720;-74
2021/06/23 14:19:47;;;;;;;0.90;0.90;;;;;;;;;;5059301;28;20080;-73
2021/06/23 14:22:14;;;;;;;0.47;0.47;;;;;;;;;;5055780;28;20071;-74
2021/06/23 14:24:40;;;;;;;1.70;0.63;;;;;;;;;;5053772;28;20056;-73
2021/06/23 14:27:06;;;;;;;2.08;0.50;;;;;;;;;;5053639;28;20040;-72
2021/06/23 14:29:33;;;;;;;0.98;0.73;;;;;;;;;;5052237;28;20108;-73
2021/06/23 14:31:59;;;;;;;0.47;0.43;;;;;;;;;;5054100;28;20107;-72
2021/06/23 14:34:25;;;;;;;1.48;0.63;;;;;;;;;;5055141;28;21019;-72
2021/06/23 14:36:51;;;;;;;0.75;0.40;;;;;;;;;;5054315;28;20060;-72
2021/06/23 14:39:17;;;;;;;0.60;0.60;;;;;;;;;;5056370;28;20121;-72
2021/06/23 14:41:43;;;;;;;3.97;1.15;;;;;;;;;;5057119;28;20103;-72
2021/06/23 14:44:09;;;;;;;1.60;0.50;;;;;;;;;;5056377;28;20040;-72
2021/06/23 14:46:36;;;;;;;1.67;0.90;;;;;;;;;;5053455;28;20056;-72
2021/06/23 14:49:03;;;;;;;2.00;0.82;;;;;;;;;;5056166;28;20588;-72
2021/06/23 14:51:29;;;;;;;0.85;0.77;;;;;;;;;;5055055;28;20060;-72
2021/06/23 14:53:55;;;;;;;0.57;0.55;;;;;;;;;;5056536;28;20040;-72
2021/06/23 14:56:22;;;;;;;4.50;0.60;;;;;;;;;;5053223;28;20044;-72
2021/06/23 14:58:48;;;;;;;2.15;1.10;;;;;;;;;;5056759;28;20534;-72
2021/06/23 15:01:14;;;;;;;0.55;0.45;;;;;;;;;;5055270;28;20139;-72
2021/06/23 15:03:40;;;;;;;3.08;0.98;;;;;;;;;;5055697;28;20057;-72
2021/06/23 15:06:07;;;;;;;1.42;0.70;;;;;;;;;;5049664;28;20053;-73
2021/06/23 15:08:35;;;;;;;2.60;1.15;;;;;;;;;;5054063;28;20055;-73
2021/06/23 15:11:02;;;;;;;3.13;0.77;;;;;;;;;;5056155;28;20056;-70